Terminal Aerodrome Forecast
Issued by NWS

Home | Current Version | Previous Version | Text Only | Print | Product List | Glossary On
Versions: 1 2 3 4 5 6 7 8 9 10 11 12 13 14 15 16
095
FTUS43 KJKL 021734
TAFSME
TAF
KSME 021734Z 0218/0318 23005KT 5SM -SHRA VCTS BKN020CB OVC050
     FM022300 29004KT P6SM VCTS OVC040CB
     FM030400 VRB03KT 4SM BR OVC030
     FM030700 33004KT 1SM BR OVC010
     FM031300 VRB05KT P6SM BKN015
     FM031700 28007KT P6SM BKN025=

USA.gov is the U.S. government's official web portal to all federal, state and local government web resources and services.